Time;durP1;ratioP1;P1;durP2;ratioP2;P2;SDS_P1;SDS_P2;PMS_P1;PMS_P2;Temp;Humidity;BMP_temperature;BMP_pressure;BME280_temperature;BME280_humidity;BME280_pressure;Samples;Min_cycle;Max_cycle;Signal;HPM_P1;HPM_P2
2022/05/03 00:02:44;;;;;;;8.65;6.63;;;;;;;17.70;50.65;101084.28;4952730;28;20058;-60
2022/05/03 00:05:22;;;;;;;8.23;6.10;;;;;;;17.68;50.34;101086.22;4953389;28;20488;-61
2022/05/03 00:07:55;;;;;;;8.52;6.90;;;;;;;17.68;50.75;101088.03;4953595;28;20063;-60
2022/05/03 00:10:32;;;;;;;9.20;6.30;;;;;;;17.66;50.56;101082.88;4953446;28;20115;-64
2022/05/03 00:13:05;;;;;;;9.10;6.25;;;;;;;17.63;50.62;101083.09;4953681;28;20443;-61
2022/05/03 00:15:35;;;;;;;8.25;6.38;;;;;;;17.58;50.91;101077.31;4953499;28;20047;-61
2022/05/03 00:18:03;;;;;;;9.05;6.53;;;;;;;17.51;51.23;101078.78;4953598;28;20134;-60
2022/05/03 00:20:30;;;;;;;7.43;6.25;;;;;;;17.44;51.73;101079.25;4952159;28;20059;-67
2022/05/03 00:22:58;;;;;;;10.35;6.90;;;;;;;17.42;51.78;101081.22;4953436;28;20137;-63
2022/05/03 00:25:25;;;;;;;9.43;7.00;;;;;;;17.35;51.80;101080.00;4953254;28;20505;-62
2022/05/03 00:27:52;;;;;;;9.82;7.35;;;;;;;17.36;52.06;101086.19;4953241;28;20054;-61
2022/05/03 00:30:19;;;;;;;10.23;6.82;;;;;;;17.34;52.44;101078.31;4953282;28;20044;-60
2022/05/03 00:32:47;;;;;;;8.15;7.03;;;;;;;17.34;52.32;101073.00;4953404;28;20149;-61
2022/05/03 00:35:16;;;;;;;11.15;7.65;;;;;;;17.30;52.51;101076.88;4953289;28;20102;-60
2022/05/03 00:37:42;;;;;;;7.68;6.88;;;;;;;17.28;52.27;101068.19;4952550;28;20098;-60
2022/05/03 00:40:11;;;;;;;7.78;6.93;;;;;;;17.30;52.47;101068.94;4953157;28;20047;-64
2022/05/03 00:43:13;;;;;;;10.07;6.50;;;;;;;17.28;52.53;101070.84;4953032;28;20058;-60
2022/05/03 00:45:48;;;;;;;9.20;7.10;;;;;;;17.26;52.54;101068.31;4926762;28;20071;-61
2022/05/03 00:48:53;;;;;;;12.00;6.90;;;;;;;17.21;52.61;101070.50;4956725;28;20043;-65
2022/05/03 00:51:37;;;;;;;9.32;6.60;;;;;;;17.21;52.70;101067.03;4930298;28;20500;-62
2022/05/03 00:54:29;;;;;;;7.95;7.07;;;;;;;17.23;52.59;101070.38;4948472;29;20412;-61
2022/05/03 00:57:28;;;;;;;8.30;6.95;;;;;;;17.26;52.82;101072.81;4955749;28;20077;-60
2022/05/03 01:00:05;;;;;;;9.48;7.18;;;;;;;17.24;52.67;101074.72;4929074;28;20115;-67
2022/05/03 01:03:15;;;;;;;8.50;6.40;;;;;;;17.21;52.87;101067.03;4949039;29;20062;-60
2022/05/03 01:05:59;;;;;;;8.52;7.18;;;;;;;17.23;52.83;101057.97;4956056;28;20047;-60
2022/05/03 01:08:34;;;;;;;9.82;7.57;;;;;;;17.23;53.02;101062.41;4956133;28;20404;-60
2022/05/03 01:11:22;;;;;;;12.50;7.45;;;;;;;17.22;53.07;101072.19;4955413;28;20055;-61
2022/05/03 01:14:30;;;;;;;10.27;6.85;;;;;;;17.24;52.71;101070.28;4956248;28;20051;-61
2022/05/03 01:17:14;;;;;;;9.02;7.25;;;;;;;17.22;53.18;101063.41;4935194;29;20052;-60
2022/05/03 01:20:03;;;;;;;8.60;6.93;;;;;;;17.23;53.20;101071.25;4955908;28;20051;-61
2022/05/03 01:22:48;;;;;;;11.50;7.15;;;;;;;17.24;53.09;101072.94;4955892;28;20401;-62
2022/05/03 01:25:36;;;;;;;8.07;6.53;;;;;;;17.25;52.58;101068.47;4968995;28;20496;-61
2022/05/03 01:28:30;;;;;;;11.55;6.75;;;;;;;17.24;53.05;101072.06;4943930;29;20047;-61
2022/05/03 01:31:11;;;;;;;6.95;6.20;;;;;;;17.19;52.74;101067.16;4955923;28;20138;-61
2022/05/03 01:33:41;;;;;;;9.60;7.60;;;;;;;17.16;53.16;101070.03;4955963;28;20130;-63
2022/05/03 01:36:09;;;;;;;8.68;6.57;;;;;;;17.13;53.07;101062.34;4955959;28;20047;-60
2022/05/03 01:39:02;;;;;;;11.93;7.30;;;;;;;17.11;53.40;101066.91;4966547;28;20118;-63
2022/05/03 01:41:37;;;;;;;8.88;7.20;;;;;;;17.10;53.71;101071.38;4943232;29;20091;-65
2022/05/03 01:44:22;;;;;;;9.38;6.75;;;;;;;17.06;53.67;101071.72;4955717;28;20062;-67
2022/05/03 01:46:55;;;;;;;9.37;7.50;;;;;;;17.03;53.73;101069.34;4954818;28;20516;-65
2022/05/03 01:52:39;;;;;;;8.77;7.28;;;;;;;16.91;54.74;101071.13;4947846;29;20134;-60
2022/05/03 01:55:21;;;;;;;9.60;7.05;;;;;;;16.90;54.72;101080.00;4955497;28;20094;-67
2022/05/03 01:58:05;;;;;;;9.52;7.30;;;;;;;16.87;55.10;101074.94;4964374;28;20393;-60
2022/05/03 02:00:38;;;;;;;13.90;7.30;;;;;;;16.88;55.06;101076.63;4955332;28;20047;-64
2022/05/03 02:03:25;;;;;;;11.55;7.82;;;;;;;16.89;55.07;101068.56;4954233;28;20055;-63
2022/05/03 02:06:00;;;;;;;9.32;7.47;;;;;;;16.90;54.94;101074.69;4954192;29;20047;-67
2022/05/03 02:08:38;;;;;;;11.23;6.88;;;;;;;16.92;54.83;101070.16;4953975;29;20054;-67
2022/05/03 02:11:25;;;;;;;11.15;7.47;;;;;;;16.91;55.48;101071.13;4955306;28;20075;-60
2022/05/03 02:17:27;;;;;;;10.55;7.43;;;;;;;16.93;55.36;101072.69;4961174;28;20496;-63
2022/05/03 02:20:14;;;;;;;10.77;8.02;;;;;;;16.92;55.33;101081.59;4940793;28;20051;-65
2022/05/03 02:22:55;;;;;;;9.63;7.63;;;;;;;16.94;55.61;101077.03;4954912;28;20043;-60
2022/05/03 02:26:00;;;;;;;10.18;7.80;;;;;;;16.95;55.85;101075.22;4954828;28;20058;-60
2022/05/03 02:28:53;;;;;;;11.70;7.43;;;;;;;16.95;55.50;101085.81;4954879;28;20051;-60
2022/05/03 02:31:30;;;;;;;12.65;7.97;;;;;;;16.94;55.45;101079.69;4954800;28;20523;-66
2022/05/03 02:34:07;;;;;;;9.43;8.32;;;;;;;16.93;55.56;101080.63;4954822;28;20047;-60
2022/05/03 02:36:42;;;;;;;15.95;8.02;;;;;;;16.90;55.34;101067.59;4953706;28;20427;-64
2022/05/03 02:39:12;;;;;;;10.23;8.38;;;;;;;16.88;55.59;101074.00;4954791;28;20646;-66
2022/05/03 02:41:41;;;;;;;14.52;9.00;;;;;;;16.84;55.39;101076.03;4954748;28;20055;-60
2022/05/03 02:44:11;;;;;;;12.15;8.50;;;;;;;16.80;55.40;101075.41;4954637;28;20071;-67
2022/05/03 02:46:56;;;;;;;11.55;8.35;;;;;;;16.83;55.19;101065.56;4955458;28;20059;-67
2022/05/03 02:49:41;;;;;;;12.20;9.20;;;;;;;16.77;55.48;101072.16;4958186;28;20098;-60
2022/05/03 02:52:14;;;;;;;11.00;8.48;;;;;;;16.71;55.20;101070.84;4954287;28;20047;-62
2022/05/03 02:54:58;;;;;;;9.45;8.18;;;;;;;16.64;55.63;101074.94;4954326;29;20039;-62
2022/05/03 02:57:39;;;;;;;13.63;7.88;;;;;;;16.58;55.88;101068.31;4954272;28;20059;-60
2022/05/03 03:03:10;;;;;;;11.30;7.78;;;;;;;16.43;56.43;101069.47;4951137;28;20051;-60
2022/05/03 03:05:41;;;;;;;11.13;8.35;;;;;;;16.42;56.48;101065.97;4951323;28;20055;-60
2022/05/03 03:08:13;;;;;;;10.18;7.95;;;;;;;16.42;56.69;101058.03;4950601;28;20098;-67
2022/05/03 03:10:48;;;;;;;12.45;9.38;;;;;;;16.44;56.81;101065.84;4949712;28;20448;-61
2022/05/03 03:13:26;;;;;;;14.05;8.60;;;;;;;16.42;56.69;101062.50;4951045;28;20098;-60
2022/05/03 03:15:54;;;;;;;16.10;9.57;;;;;;;16.39;56.66;101058.28;4950953;28;20054;-60
2022/05/03 03:18:24;;;;;;;14.43;8.75;;;;;;;16.35;56.80;101059.44;4950970;28;20046;-60
2022/05/03 03:20:55;;;;;;;12.68;8.48;;;;;;;16.30;56.72;101053.66;4950416;28;20054;-60
2022/05/03 03:23:26;;;;;;;11.88;8.32;;;;;;;16.27;56.67;101059.19;4950763;28;20048;-60
2022/05/03 03:25:54;;;;;;;10.13;7.72;;;;;;;16.26;56.79;101060.16;4949634;28;20536;-60
2022/05/03 03:28:22;;;;;;;11.43;8.38;;;;;;;16.23;56.54;101061.22;4950802;28;20044;-61
2022/05/03 03:30:51;;;;;;;13.52;8.80;;;;;;;16.23;56.87;101053.28;4950485;28;20051;-60
2022/05/03 03:33:18;;;;;;;16.75;9.15;;;;;;;16.21;56.93;101049.91;4950634;28;20054;-60
2022/05/03 03:35:47;;;;;;;11.88;8.43;;;;;;;16.16;56.97;101060.00;4950695;28;20051;-60
2022/05/03 03:38:14;;;;;;;12.70;8.52;;;;;;;16.11;57.00;101063.00;4950482;28;20150;-63
2022/05/03 03:40:45;;;;;;;13.93;8.38;;;;;;;16.03;56.89;101059.25;4949732;28;20047;-62
2022/05/03 03:43:13;;;;;;;13.57;9.45;;;;;;;15.97;57.14;101066.69;4950467;28;20054;-60
2022/05/03 03:45:41;;;;;;;13.00;9.02;;;;;;;15.91;57.33;101063.63;4950525;28;20408;-60
2022/05/03 03:48:08;;;;;;;15.32;8.20;;;;;;;15.88;57.38;101071.81;4950419;28;20154;-60
2022/05/03 03:50:37;;;;;;;15.68;8.63;;;;;;;15.89;57.35;101068.22;4950264;28;20051;-60
2022/05/03 03:53:05;;;;;;;10.98;8.70;;;;;;;15.91;57.47;101077.72;4950627;28;20047;-60
2022/05/03 03:55:33;;;;;;;10.68;8.27;;;;;;;15.95;57.38;101070.41;4949212;28;20047;-60
2022/05/03 03:58:01;;;;;;;11.43;8.60;;;;;;;15.96;57.49;101074.72;4950422;28;20122;-66
2022/05/03 04:00:28;;;;;;;10.68;8.65;;;;;;;15.95;57.67;101081.81;4950304;28;20111;-64
2022/05/03 04:02:54;;;;;;;12.43;9.13;;;;;;;15.99;57.96;101070.06;4950405;28;20069;-60
2022/05/03 04:05:23;;;;;;;11.77;8.80;;;;;;;16.02;57.85;101071.63;4950020;28;20051;-66
2022/05/03 04:07:50;;;;;;;11.40;8.07;;;;;;;16.02;58.28;101073.44;4950184;28;20505;-60
2022/05/03 04:10:18;;;;;;;12.18;9.05;;;;;;;16.00;58.41;101076.22;4950351;28;20504;-61
2022/05/03 04:12:45;;;;;;;11.88;7.93;;;;;;;16.02;58.31;101082.22;4949375;28;20057;-60
2022/05/03 04:15:13;;;;;;;16.15;8.65;;;;;;;15.97;58.66;101084.34;4950394;28;20110;-60
2022/05/03 04:17:42;;;;;;;10.25;8.23;;;;;;;15.93;58.42;101082.91;4950334;28;20061;-64
2022/05/03 04:20:11;;;;;;;13.43;8.80;;;;;;;15.88;58.52;101082.41;4949878;28;20386;-60
2022/05/03 04:22:38;;;;;;;11.88;7.75;;;;;;;15.92;58.64;101086.50;4953707;28;20055;-60
2022/05/03 04:25:05;;;;;;;9.40;7.80;;;;;;;15.88;58.46;101092.97;4953759;29;20051;-64
2022/05/03 04:27:32;;;;;;;9.55;7.43;;;;;;;15.90;58.53;101083.97;4953506;28;20066;-61
2022/05/03 04:30:01;;;;;;;9.80;7.53;;;;;;;15.94;58.53;101090.72;4952473;28;20054;-60
2022/05/03 04:32:33;;;;;;;10.68;8.15;;;;;;;16.01;58.32;101088.50;4953593;28;20134;-60
2022/05/03 04:35:00;;;;;;;13.05;8.32;;;;;;;16.07;58.38;101090.66;4953823;28;20047;-60
2022/05/03 04:37:27;;;;;;;12.13;8.15;;;;;;;16.10;58.53;101092.22;4953830;28;20598;-60
2022/05/03 04:39:54;;;;;;;12.85;8.00;;;;;;;16.13;58.53;101102.59;4953923;28;20048;-60
2022/05/03 04:42:21;;;;;;;13.68;7.50;;;;;;;16.15;58.27;101101.53;4953235;28;20519;-60
2022/05/03 04:44:48;;;;;;;12.57;7.95;;;;;;;16.17;58.30;101098.75;4952271;28;20492;-60
2022/05/03 04:47:14;;;;;;;12.82;8.02;;;;;;;16.18;58.37;101095.16;4953598;28;20051;-60
2022/05/03 04:49:41;;;;;;;16.08;7.80;;;;;;;16.21;58.37;101094.09;4953398;28;20098;-64
2022/05/03 04:52:09;;;;;;;12.68;7.40;;;;;;;16.20;58.41;101098.53;4952620;28;20055;-60
2022/05/03 04:54:36;;;;;;;10.32;7.20;;;;;;;16.22;58.03;101103.72;4953012;28;20102;-60
2022/05/03 04:57:06;;;;;;;11.57;7.57;;;;;;;16.24;58.06;101099.13;4953241;28;20055;-60
2022/05/03 04:59:34;;;;;;;11.48;7.43;;;;;;;16.25;58.10;101104.34;4952961;28;20051;-62
2022/05/03 05:02:00;;;;;;;12.43;8.15;;;;;;;16.30;57.76;101107.50;4951909;28;20048;-60
2022/05/03 05:04:27;;;;;;;7.70;4.80;;;;;;;16.78;57.90;101109.13;4952976;28;20051;-60
2022/05/03 05:06:54;;;;;;;7.05;4.10;;;;;;;17.18;59.24;101105.25;4953026;28;20070;-60
2022/05/03 05:09:20;;;;;;;13.85;6.30;;;;;;;17.39;59.45;101105.31;4950906;28;20072;-61
2022/05/03 05:11:49;;;;;;;8.23;5.95;;;;;;;17.05;59.22;101115.09;4944625;29;20047;-61
2022/05/03 05:14:19;;;;;;;8.95;5.95;;;;;;;16.90;59.03;101117.09;4946142;28;20424;-61
2022/05/03 05:16:50;;;;;;;14.45;7.60;;;;;;;16.84;58.12;101118.44;4946624;29;20168;-61
2022/05/03 05:19:17;;;;;;;8.82;6.10;;;;;;;17.13;57.55;101120.66;4951864;28;20044;-61
2022/05/03 05:21:54;;;;;;;9.93;6.75;;;;;;;17.07;56.90;101121.97;4953036;28;20059;-64
2022/05/03 05:24:26;;;;;;;14.38;6.65;;;;;;;17.07;56.48;101127.28;4950178;28;20074;-61
2022/05/03 05:26:56;;;;;;;9.65;6.90;;;;;;;17.12;56.50;101126.94;4945958;29;20050;-60
2022/05/03 05:29:23;;;;;;;8.15;5.95;;;;;;;17.18;56.26;101128.25;4951299;28;20055;-61
2022/05/03 05:31:49;;;;;;;8.10;6.15;;;;;;;17.24;55.87;101127.75;4948740;28;20492;-60
2022/05/03 05:34:16;;;;;;;10.77;5.97;;;;;;;17.29;55.58;101126.44;4937969;29;20488;-62
2022/05/03 05:36:43;;;;;;;9.73;6.18;;;;;;;17.34;55.23;101127.88;4937361;29;20058;-61
2022/05/03 05:39:10;;;;;;;11.38;6.05;;;;;;;17.35;55.29;101130.41;4939566;29;20051;-60
2022/05/03 05:41:37;;;;;;;9.77;6.00;;;;;;;17.44;55.08;101124.38;4941114;29;20055;-60
2022/05/03 05:44:04;;;;;;;8.05;5.95;;;;;;;17.51;54.53;101127.41;4947018;28;20066;-63
2022/05/03 05:46:31;;;;;;;7.90;5.55;;;;;;;17.59;53.83;101129.44;4946018;28;20047;-60
2022/05/03 05:48:58;;;;;;;11.88;5.63;;;;;;;17.69;54.00;101134.84;4951082;28;20043;-60
2022/05/03 05:51:24;;;;;;;12.23;5.35;;;;;;;17.79;53.63;101133.97;4951816;28;20112;-61
2022/05/03 05:53:51;;;;;;;32.25;6.43;;;;;;;18.03;53.44;101134.78;4952446;28;20049;-60
2022/05/03 05:56:17;;;;;;;37.72;6.65;;;;;;;18.32;54.27;101139.50;4937505;28;20050;-61
2022/05/03 05:58:46;;;;;;;9.07;5.60;;;;;;;18.28;54.25;101138.91;4935128;29;20064;-61
2022/05/03 06:01:13;;;;;;;7.25;5.22;;;;;;;18.32;53.63;101148.31;4938328;29;20055;-60
2022/05/03 06:03:42;;;;;;;8.23;5.60;;;;;;;18.38;52.56;101141.63;4940099;29;20106;-61
2022/05/03 06:06:09;;;;;;;8.00;5.78;;;;;;;18.42;52.10;101146.59;4945590;29;20043;-61
2022/05/03 06:08:36;;;;;;;11.55;6.05;;;;;;;18.44;52.15;101152.59;4942587;28;20062;-61
2022/05/03 06:11:02;;;;;;;8.98;6.13;;;;;;;18.47;51.70;101158.63;4946483;29;20047;-61
2022/05/03 06:13:30;;;;;;;11.88;5.72;;;;;;;18.49;51.23;101148.72;4951554;28;20052;-61
2022/05/03 06:16:07;;;;;;;13.10;6.00;;;;;;;18.33;51.26;101146.50;4951798;28;20047;-61
2022/05/03 06:18:33;;;;;;;11.55;5.78;;;;;;;18.24;51.19;101148.09;4951549;28;20087;-61
2022/05/03 06:21:01;;;;;;;12.18;6.07;;;;;;;18.19;51.47;101148.47;4951127;28;20051;-62
2022/05/03 06:23:28;;;;;;;14.38;5.32;;;;;;;18.37;51.95;101148.78;4952591;28;20459;-60
2022/05/03 06:25:54;;;;;;;7.57;4.75;;;;;;;18.39;51.28;101149.47;4950020;28;20039;-60
2022/05/03 06:28:21;;;;;;;16.63;5.07;;;;;;;18.68;50.64;101143.53;4943397;28;20048;-62
2022/05/03 06:30:48;;;;;;;15.43;4.82;;;;;;;18.95;51.55;101146.66;4950473;28;20047;-61
2022/05/03 06:33:14;;;;;;;17.90;5.35;;;;;;;19.12;52.19;101156.66;4950531;28;20044;-61
2022/05/03 06:35:41;;;;;;;12.50;6.63;;;;;;;19.17;52.57;101153.63;4951079;28;20495;-61
2022/05/03 06:38:08;;;;;;;11.60;6.05;;;;;;;19.18;51.37;101147.31;4951206;28;20415;-62
2022/05/03 06:40:34;;;;;;;12.93;6.40;;;;;;;19.25;50.14;101151.16;4950257;28;20047;-62
2022/05/03 06:43:01;;;;;;;28.55;8.52;;;;;;;19.31;49.29;101155.94;4950476;28;20043;-61
2022/05/03 06:45:28;;;;;;;14.95;6.88;;;;;;;19.42;48.86;101153.16;4950936;28;20058;-62
2022/05/03 06:47:54;;;;;;;9.15;6.57;;;;;;;19.53;48.39;101151.38;4951111;28;20094;-61
2022/05/03 06:50:21;;;;;;;18.27;6.18;;;;;;;19.63;48.15;101154.91;4940666;29;20054;-60
2022/05/03 06:52:48;;;;;;;13.82;5.90;;;;;;;19.73;47.80;101158.44;4949692;28;20103;-60
2022/05/03 06:55:15;;;;;;;20.42;7.13;;;;;;;19.80;47.37;101155.22;4946651;28;20047;-61
2022/05/03 06:57:42;;;;;;;17.85;6.35;;;;;;;19.92;46.86;101151.47;4948860;28;20106;-61
2022/05/03 07:00:09;;;;;;;39.03;7.68;;;;;;;20.02;46.81;101156.81;4949792;28;20098;-61
2022/05/03 07:02:36;;;;;;;20.15;6.20;;;;;;;20.12;46.64;101151.50;4944133;28;20110;-62
2022/05/03 07:05:04;;;;;;;12.43;4.70;;;;;;;20.22;46.41;101150.53;4949039;29;20047;-63
2022/05/03 07:07:31;;;;;;;14.20;5.53;;;;;;;20.19;46.38;101150.81;4947512;28;20103;-67
2022/05/03 07:10:01;;;;;;;9.93;4.63;;;;;;;20.24;45.91;101155.72;4949652;28;20039;-66
2022/05/03 07:12:29;;;;;;;8.73;3.88;;;;;;;20.30;45.84;101156.97;4948848;29;20460;-65
2022/05/03 07:15:00;;;;;;;7.88;2.88;;;;;;;20.33;44.98;101156.72;4943035;28;20044;-57
2022/05/03 07:22:58;;;;;;;4.45;2.78;;;;;;;20.58;43.65;101162.44;4949321;29;20051;-61
2022/05/03 07:25:26;;;;;;;6.50;2.75;;;;;;;20.65;43.62;101161.72;4948745;28;20047;-60
2022/05/03 07:27:53;;;;;;;7.57;2.58;;;;;;;20.72;42.63;101162.00;4943073;28;20472;-60
2022/05/03 07:30:20;;;;;;;10.25;3.08;;;;;;;20.76;42.77;101159.91;4953951;28;20043;-59
2022/05/03 07:32:47;;;;;;;15.88;3.95;;;;;;;20.83;42.04;101161.03;4950420;28;20428;-59
2022/05/03 07:35:15;;;;;;;4.50;2.67;;;;;;;20.91;41.68;101160.31;4950687;29;20042;-59
2022/05/03 07:37:42;;;;;;;5.13;2.20;;;;;;;20.98;41.36;101154.25;4950537;28;20121;-58
2022/05/03 07:40:10;;;;;;;59.35;6.72;;;;;;;21.04;40.96;101161.66;4950414;28;20047;-59
2022/05/03 07:42:37;;;;;;;6.95;2.80;;;;;;;21.10;41.36;101159.41;4950431;28;20791;-59
2022/05/03 07:45:04;;;;;;;7.88;2.38;;;;;;;21.18;40.75;101152.34;4948647;28;20059;-59
2022/05/03 07:47:31;;;;;;;14.23;4.97;;;;;;;21.26;40.73;101162.28;4944292;29;20051;-64
2022/05/03 07:49:57;;;;;;;4.95;3.05;;;;;;;21.28;40.57;101160.31;4941679;28;20184;-59
2022/05/03 07:52:24;;;;;;;4.18;2.80;;;;;;;21.35;40.01;101160.56;4949277;28;20046;-59
2022/05/03 07:54:51;;;;;;;12.00;3.05;;;;;;;21.44;39.75;101158.84;4942883;28;20040;-60
2022/05/03 07:57:18;;;;;;;5.63;3.00;;;;;;;21.44;39.93;101159.66;4952954;28;20047;-59
2022/05/03 07:59:45;;;;;;;9.88;2.47;;;;;;;21.49;39.55;101164.56;4953558;28;20047;-58
2022/05/03 08:02:12;;;;;;;7.13;2.67;;;;;;;21.60;39.76;101163.56;4951144;28;20570;-60
2022/05/03 08:04:41;;;;;;;2.70;2.50;;;;;;;21.65;39.54;101164.81;4950428;29;20441;-59
2022/05/03 08:07:08;;;;;;;13.73;3.05;;;;;;;21.75;39.62;101158.56;4953030;28;20047;-59
2022/05/03 08:09:36;;;;;;;9.50;2.70;;;;;;;21.84;39.42;101163.00;4952845;28;20051;-60
2022/05/03 08:12:04;;;;;;;14.13;4.05;;;;;;;21.92;38.99;101162.25;4953103;28;20043;-60
2022/05/03 08:14:31;;;;;;;4.15;2.67;;;;;;;21.94;39.01;101161.13;4953087;28;20416;-59
2022/05/03 08:17:00;;;;;;;4.30;2.65;;;;;;;22.02;38.94;101158.50;4950537;28;20058;-62
2022/05/03 08:19:27;;;;;;;87.15;7.68;;;;;;;22.06;39.02;101168.91;4943327;28;20047;-59
2022/05/03 08:21:56;;;;;;;5.32;2.88;;;;;;;22.12;38.84;101160.28;4946969;29;20090;-60
2022/05/03 08:24:24;;;;;;;3.95;2.35;;;;;;;22.16;38.52;101159.81;4950785;29;20055;-59
2022/05/03 08:26:51;;;;;;;5.63;2.42;;;;;;;22.21;38.59;101164.72;4952706;28;20044;-59
2022/05/03 08:29:18;;;;;;;56.08;7.00;;;;;;;22.26;38.48;101158.88;4943124;28;20043;-60
2022/05/03 08:31:46;;;;;;;4.88;2.50;;;;;;;22.38;38.11;101156.84;4941978;28;20047;-60
2022/05/03 08:34:13;;;;;;;16.33;3.22;;;;;;;22.47;38.03;101161.28;4950173;28;20079;-59
2022/05/03 08:36:40;;;;;;;5.88;2.55;;;;;;;22.57;37.48;101159.34;4951717;28;20051;-59
2022/05/03 08:42:06;;;;;;;4.83;2.43;;;;;;;22.75;37.48;101166.50;4944289;28;20051;-59
2022/05/03 08:44:34;;;;;;;4.25;2.42;;;;;;;22.87;37.19;101165.25;4952771;28;20051;-58
2022/05/03 08:47:02;;;;;;;11.88;2.65;;;;;;;22.94;37.22;101173.47;4949982;28;20051;-59
2022/05/03 08:49:54;;;;;;;3.38;2.60;;;;;;;22.89;36.90;101171.25;4962882;28;20050;-59
2022/05/03 08:52:22;;;;;;;4.78;2.55;;;;;;;23.02;36.73;101162.84;4944824;28;20051;-60
2022/05/03 08:54:49;;;;;;;5.38;2.40;;;;;;;23.07;36.29;101165.88;4953140;28;20451;-60
2022/05/03 08:57:18;;;;;;;6.30;2.60;;;;;;;23.13;36.14;101167.91;4953158;28;20054;-61
2022/05/03 08:59:48;;;;;;;3.83;2.17;;;;;;;23.18;35.87;101170.13;4952920;28;20043;-60
2022/05/03 09:02:15;;;;;;;8.25;2.00;;;;;;;23.21;35.62;101171.66;4952890;28;20130;-61
2022/05/03 09:04:42;;;;;;;3.28;2.20;;;;;;;23.28;35.41;101170.84;4946500;28;20051;-61
2022/05/03 09:07:23;;;;;;;2.90;2.03;;;;;;;23.38;35.12;101161.88;4952227;28;20059;-60
2022/05/03 09:09:51;;;;;;;8.77;2.45;;;;;;;23.42;35.16;101156.00;4945690;28;20390;-61
2022/05/03 09:12:22;;;;;;;6.03;2.38;;;;;;;23.47;34.91;101155.53;4947757;28;20612;-60
2022/05/03 09:14:49;;;;;;;5.10;2.45;;;;;;;23.57;34.68;101153.56;4944658;28;20051;-61
2022/05/03 09:17:34;;;;;;;3.65;2.20;;;;;;;23.69;34.47;101159.44;4952379;28;20043;-60
2022/05/03 09:23:46;;;;;;;6.43;2.43;;;;;;;23.79;34.53;101160.16;4952646;28;20131;-61
2022/05/03 09:23:53;;;;;;;10.73;3.22;;;;;;;23.84;34.50;101162.34;4944074;28;20299;-61
2022/05/03 09:25:48;;;;;;;9.30;2.88;;;;;;;23.94;34.31;101151.50;4940699;28;20047;-66
2022/05/03 09:28:15;;;;;;;18.50;3.30;;;;;;;24.01;34.32;101155.22;4947408;28;20051;-62
2022/05/03 09:30:50;;;;;;;4.22;2.10;;;;;;;24.07;34.14;101157.19;4952295;28;20496;-62
2022/05/03 09:33:19;;;;;;;6.88;2.83;;;;;;;24.12;33.99;101149.53;4952310;28;20043;-61
2022/05/03 09:35:47;;;;;;;3.53;2.53;;;;;;;24.23;33.73;101151.03;4952167;28;20567;-61
2022/05/03 09:38:14;;;;;;;4.05;2.78;;;;;;;24.23;33.75;101140.28;4951432;28;20562;-62
2022/05/03 09:40:43;;;;;;;6.65;3.00;;;;;;;24.33;34.17;101148.19;4937467;29;20048;-62
2022/05/03 09:43:11;;;;;;;5.30;2.60;;;;;;;24.46;33.72;101145.81;4940733;28;20056;-61
2022/05/03 09:45:38;;;;;;;11.23;2.65;;;;;;;24.57;33.60;101152.69;4933822;29;20864;-63
2022/05/03 09:48:06;;;;;;;2.90;2.40;;;;;;;24.59;33.52;101147.16;4951351;29;20053;-61
2022/05/03 09:50:32;;;;;;;4.45;2.72;;;;;;;24.63;33.24;101137.75;4951635;28;20058;-62
2022/05/03 09:53:08;;;;;;;4.95;2.42;;;;;;;24.71;33.21;101142.28;4951858;28;20488;-62
2022/05/03 09:55:37;;;;;;;6.88;2.83;;;;;;;24.73;33.44;101145.66;4946062;28;20057;-63
2022/05/03 09:58:06;;;;;;;8.48;3.38;;;;;;;24.77;33.43;101141.63;4951872;28;20055;-65
2022/05/03 10:00:34;;;;;;;11.52;3.30;;;;;;;24.84;32.94;101139.09;4950421;28;20483;-64
2022/05/03 10:03:03;;;;;;;7.10;3.50;;;;;;;24.93;32.65;101141.56;4950114;28;20043;-61
2022/05/03 10:05:30;;;;;;;3.90;2.72;;;;;;;25.01;32.51;101145.25;4951952;28;20101;-61
2022/05/03 10:07:57;;;;;;;4.00;2.58;;;;;;;25.00;32.35;101144.44;4953819;28;20059;-61
2022/05/03 10:10:25;;;;;;;4.18;2.50;;;;;;;24.97;32.21;101136.69;4951785;28;20062;-61
2022/05/03 10:12:56;;;;;;;3.92;2.95;;;;;;;25.01;32.22;101140.72;4952140;28;20054;-61
2022/05/03 10:21:15;;;;;;;3.65;2.72;;;;;;;25.36;31.45;101125.16;4952673;28;20059;-60
2022/05/03 10:24:01;;;;;;;7.18;2.80;;;;;;;25.47;31.34;101126.66;4949286;29;20051;-61
2022/05/03 10:26:52;;;;;;;3.35;2.70;;;;;;;25.47;31.40;101123.09;4950067;29;20043;-61
2022/05/03 10:29:21;;;;;;;3.65;2.63;;;;;;;25.41;31.42;101124.66;4943085;29;20571;-61
2022/05/03 10:31:57;;;;;;;2.33;1.90;;;;;;;25.33;31.27;101125.50;4951402;28;20488;-61
2022/05/03 10:34:46;;;;;;;3.75;1.90;;;;;;;25.30;30.78;101116.97;4939783;29;20043;-61
2022/05/03 10:37:18;;;;;;;3.28;2.22;;;;;;;25.35;30.91;101112.72;4950537;29;20309;-61
2022/05/03 10:39:58;;;;;;;5.45;2.10;;;;;;;25.45;30.53;101111.72;4949373;29;20099;-61
2022/05/03 10:42:27;;;;;;;3.53;2.30;;;;;;;25.54;30.68;101102.59;4949944;28;20051;-68
2022/05/03 10:44:53;;;;;;;2.72;2.20;;;;;;;25.57;30.47;101108.44;4949621;28;20047;-62
2022/05/03 10:47:38;;;;;;;3.05;2.20;;;;;;;25.74;30.42;101094.91;4951336;28;20072;-61
2022/05/03 10:50:17;;;;;;;2.30;2.10;;;;;;;25.82;30.16;101097.50;4950148;28;20051;-61
2022/05/03 10:52:58;;;;;;;3.60;2.25;;;;;;;25.76;30.32;101098.22;4946233;29;20039;-68
2022/05/03 10:55:28;;;;;;;2.45;1.80;;;;;;;25.71;29.96;101100.63;4941489;29;20963;-61
2022/05/03 10:58:27;;;;;;;2.67;2.08;;;;;;;25.77;29.67;101097.22;4949749;28;20539;-61
2022/05/03 11:01:14;;;;;;;3.90;2.20;;;;;;;25.82;29.50;101091.31;4943884;29;20433;-61
2022/05/03 11:04:01;;;;;;;3.05;1.80;;;;;;;25.81;29.43;101093.16;4950694;28;20110;-61
2022/05/03 11:06:28;;;;;;;3.17;2.03;;;;;;;25.77;29.33;101099.91;4940365;29;20055;-61
2022/05/03 11:09:04;;;;;;;2.72;2.20;;;;;;;25.63;29.46;101095.31;4953250;28;20047;-62
2022/05/03 11:11:50;;;;;;;4.60;1.98;;;;;;;25.67;29.12;101091.25;4951662;28;20134;-61
2022/05/03 11:14:21;;;;;;;4.18;2.15;;;;;;;25.56;29.18;101082.56;4938162;29;20046;-61
2022/05/03 11:17:05;;;;;;;6.70;2.00;;;;;;;25.74;28.71;101093.03;4932543;29;20488;-61
2022/05/03 11:19:34;;;;;;;9.48;2.65;;;;;;;25.69;28.69;101086.53;4938983;29;20055;-61
2022/05/03 11:22:08;;;;;;;2.70;2.00;;;;;;;25.68;28.72;101083.00;4950054;28;20059;-61
2022/05/03 11:24:36;;;;;;;2.78;1.80;;;;;;;25.72;28.62;101073.56;4950334;29;20043;-61
2022/05/03 11:27:09;;;;;;;3.47;1.80;;;;;;;25.56;28.99;101077.22;4950367;28;20051;-60
2022/05/03 11:29:41;;;;;;;2.97;2.03;;;;;;;25.45;28.64;101063.34;4949696;28;20491;-61
2022/05/03 11:32:08;;;;;;;5.00;2.17;;;;;;;25.43;28.66;101071.56;4950320;28;20106;-62
2022/05/03 11:34:37;;;;;;;4.53;2.00;;;;;;;25.57;28.76;101065.44;4939270;29;20058;-61
2022/05/03 11:37:07;;;;;;;3.00;1.92;;;;;;;25.67;28.49;101062.50;4950629;28;20490;-61
2022/05/03 11:39:38;;;;;;;2.40;1.60;;;;;;;25.68;28.22;101056.13;4949934;28;20424;-61
2022/05/03 11:42:06;;;;;;;1.95;1.60;;;;;;;25.54;27.92;101057.72;4952403;28;20066;-60
2022/05/03 11:44:33;;;;;;;3.60;1.58;;;;;;;25.49;27.75;101054.72;4951368;28;20456;-61
2022/05/03 11:47:03;;;;;;;4.00;2.08;;;;;;;25.49;28.11;101053.91;4950540;28;20051;-61
2022/05/03 11:49:31;;;;;;;3.33;1.80;;;;;;;25.45;28.22;101052.59;4949742;28;20505;-60
2022/05/03 11:57:42;;;;;;;4.63;4.25;;;;;;;25.43;28.07;101048.25;4943922;29;20382;-67
2022/05/03 12:00:12;;;;;;;5.83;1.80;;;;;;;25.45;28.33;101049.91;4949499;29;20048;-65
2022/05/03 12:02:46;;;;;;;10.05;3.30;;;;;;;25.39;28.21;101054.97;4949965;28;20279;-64
2022/05/03 12:05:18;;;;;;;14.75;13.57;;;;;;;25.35;28.41;101042.88;4947545;29;20103;-69
2022/05/03 12:07:57;;;;;;;2.97;2.45;;;;;;;25.33;28.69;101047.59;4950436;28;20051;-77
2022/05/03 12:10:25;;;;;;;6.00;2.25;;;;;;;25.35;28.48;101042.03;4950023;28;20496;-70
2022/05/03 12:13:15;;;;;;;5.15;2.20;;;;;;;25.39;28.66;101038.84;4949310;28;20075;-66
2022/05/03 12:16:11;;;;;;;3.00;1.83;;;;;;;25.49;28.76;101044.00;4950076;28;20039;-64